Celandine — ONDN — position and weather

sailwx.info

Track history (hours):
 
Tides and Currents Weather Stations Pressure Air Temp Water Temp Dewpoint Dewpoint Depression Visibility Wind Speed Wind Dir Waves Ship Positions

Celandine

Last reported at 2014-Nov-27 13:24 UTC. Time now 2014-Nov-27 14:24 UTC.
Position N 51°21' E 003°13'.

Length 162 m; draft 6 m.

Type: Ship (hazmat cat A). MMSI: 205476000.

Date/timePositionNaut miles runAvg speedWind from/ knotsBaromVisibWave heightAir tempDewpointWater temp
2014-Nov-27 13:24N 51°21' E 003°13'0 0.0
2014-Nov-27 12:33N 51°21' E 003°13'0 0.4
2014-Nov-27 11:33N 51°21' E 003°13'1110.7
2014-Nov-27 10:33N 51°30' E 003°04'1615.9
2014-Nov-27 09:33N 51°46' E 003°07'1616.1
2014-Nov-27 08:33N 51°59' E 003°20'9014.9
2014-Nov-27 02:31N 53°19' E 004°29'2116.0
2014-Nov-27 01:12N 53°38' E 004°45'1016.1
2014-Nov-27 00:34N 53°44' E 004°58'1615.8
2014-Nov-26 23:33N 53°54' E 005°20'1515.3
2014-Nov-26 22:33N 54°03' E 005°41'7614.9
2014-Nov-26 17:29N 55°15' E 006°19'1515.5
2014-Nov-26 16:32N 55°29' E 006°29'14215.8
2014-Nov-26 07:33N 57°25' E 008°56'2016.6
2014-Nov-26 06:22N 57°34' E 009°29'1316.0
2014-Nov-26 05:33N 57°41' E 009°50'1615.7
2014-Nov-26 04:33N 57°46' E 010°18'1515.5
2014-Nov-26 03:33N 57°49' E 010°46'1616.1
2014-Nov-26 02:33N 57°42' E 011°13'1515.3
2014-Nov-26 01:33N 57°38' E 011°41'7 7.1
2014-Nov-26 00:32N 57°41' E 011°52'0 0.0
2014-Nov-25 23:32N 57°41' E 011°52'0 0.0
2014-Nov-25 22:29N 57°41' E 011°52'0 0.0
2014-Nov-25 21:32N 57°41' E 011°52'0 0.0
2014-Nov-25 20:32N 57°41' E 011°52'0 0.0
2014-Nov-25 19:32N 57°41' E 011°52'0 0.0
2014-Nov-25 18:32N 57°41' E 011°52'0 0.0
2014-Nov-25 17:32N 57°41' E 011°52'0 0.0
2014-Nov-25 16:32N 57°41' E 011°52'0 0.0
2014-Nov-25 15:32N 57°41' E 011°52'0 0.0
2014-Nov-25 14:32N 57°41' E 011°52'0 0.0
2014-Nov-25 13:32N 57°41' E 011°52'0 0.0
2014-Nov-25 12:32N 57°41' E 011°52'0 0.0
2014-Nov-25 11:32N 57°41' E 011°52'0 0.0
2014-Nov-25 10:32N 57°41' E 011°52'0 0.0
2014-Nov-25 09:32N 57°41' E 011°52'0 0.0
2014-Nov-25 08:32N 57°41' E 011°52'0 0.0
2014-Nov-25 07:32N 57°41' E 011°52'0 0.0
2014-Nov-25 06:32N 57°41' E 011°52'0 0.0
2014-Nov-25 05:32N 57°41' E 011°52'0 0.0
2014-Nov-25 04:32N 57°41' E 011°52'0 0.0
2014-Nov-25 03:32N 57°41' E 011°52'0 0.0
2014-Nov-25 02:29N 57°41' E 011°52'0 0.0
2014-Nov-25 01:32N 57°41' E 011°52'0 0.0
2014-Nov-25 00:32N 57°41' E 011°52'0 0.0
2014-Nov-24 23:32N 57°41' E 011°52'0 0.3
2014-Nov-24 22:34N 57°41' E 011°52'1111.4
2014-Nov-24 21:33N 57°37' E 011°32'1010.0
2014-Nov-24 20:33N 57°37' E 011°14'13 9.4
2014-Nov-24 19:13N 57°43' E 010°53'6 9.3
2014-Nov-24 18:33N 57°48' E 010°46'8 6.7
2014-Nov-24 17:21N 57°49' E 010°30'6 7.7
2014-Nov-24 16:33N 57°46' E 010°20'17115.0
2014-Nov-24 05:08N 55°43' E 006°43'1515.8
2014-Nov-24 04:11N 55°30' E 006°31'1416.0
2014-Nov-24 03:17N 55°17' E 006°22'1215.3
2014-Nov-24 02:29N 55°05' E 006°16'5315.9
2014-Nov-23 23:08N 54°15' E 005°46'915.2
2014-Nov-23 22:32N 54°06' E 005°43'1616.2
2014-Nov-23 21:33N 53°54' E 005°24'1716.6
2014-Nov-23 20:33N 53°43' E 005°04'1616.3
2014-Nov-23 19:33N 53°30' E 004°46'1716.8
2014-Nov-23 18:33N 53°15' E 004°34'2017.2
2014-Nov-23 17:25N 52°58' E 004°19'1817.5
2014-Nov-23 16:22N 52°42' E 004°03'4218.1
2014-Nov-23 14:03N 52°07' E 003°26'918.5
2014-Nov-23 13:33N 51°58' E 003°24'1817.7
2014-Nov-23 12:33N 51°43' E 003°09'1716.6
2014-Nov-23 11:33N 51°27' E 002°60'1110.6
2014-Nov-23 10:33N 51°21' E 003°13'0 0.0
2014-Nov-23 09:33N 51°21' E 003°13'0 0.0
2014-Nov-23 08:33N 51°21' E 003°13'0 0.0
2014-Nov-23 07:33N 51°21' E 003°13'0 0.0
2014-Nov-23 06:33N 51°21' E 003°13'0 0.0
2014-Nov-23 05:33N 51°21' E 003°13'0 0.0
2014-Nov-23 04:33N 51°21' E 003°13'0 0.0
2014-Nov-23 03:33N 51°21' E 003°13'0 0.0
2014-Nov-23 02:33N 51°21' E 003°13'2 1.9
2014-Nov-23 01:33N 51°22' E 003°11'10 9.3
2014-Nov-23 00:31N 51°31' E 003°06'1515.4
2014-Nov-22 23:33N 51°46' E 003°11'1716.2
2014-Nov-22 22:29N 52°02' E 003°21'3717.3
2014-Nov-22 20:21N 52°34' E 003°50'3616.4
2014-Nov-22 18:08N 53°07' E 004°17'3914.8
2014-Nov-22 15:32N 53°40' E 004°49'1616.4
2014-Nov-22 14:32N 53°50' E 005°11'1717.0
2014-Nov-22 13:33N 54°00' E 005°34'1615.7
2014-Nov-22 12:33N 54°14' E 005°46'6015.0
2014-Nov-22 08:33N 55°11' E 006°19'20115.2
2014-Nov-21 19:20N 57°45' E 010°14'1316.9
2014-Nov-21 18:33N 57°50' E 010°38'1616.5
2014-Nov-21 17:33N 57°44' E 011°06'1616.2
2014-Nov-21 16:33N 57°37' E 011°33'1110.9
2014-Nov-21 15:31N 57°41' E 011°52'0 0.0
2014-Nov-21 14:31N 57°41' E 011°52'0 0.0
2014-Nov-21 13:31N 57°41' E 011°52'0 0.0
2014-Nov-21 12:31N 57°41' E 011°52'0 0.0
2014-Nov-21 11:31N 57°41' E 011°52'0 0.0
2014-Nov-21 10:31N 57°41' E 011°52'0 0.0
2014-Nov-21 09:31N 57°41' E 011°52'0 0.0
2014-Nov-21 08:31N 57°41' E 011°52'0 0.0
2014-Nov-21 07:31N 57°41' E 011°52'0 0.1
2014-Nov-21 06:34N 57°41' E 011°52'1010.2
2014-Nov-21 05:34N 57°37' E 011°35'1313.3
2014-Nov-21 04:33N 57°37' E 011°10'1312.7
2014-Nov-21 03:33N 57°44' E 010°51'18213.8
2014-Nov-20 14:20N 55°43' E 006°43'1516.0
2014-Nov-20 13:23N 55°29' E 006°30'1416.6
2014-Nov-20 12:32N 55°16' E 006°23'6815.9
2014-Nov-20 08:15N 54°11' E 005°45'1116.1
2014-Nov-20 07:33N 54°01' E 005°37'1717.1
2014-Nov-20 06:33N 53°50' E 005°15'1717.4
2014-Nov-20 05:33N 53°38' E 004°53'1717.3
2014-Nov-20 04:32N 53°22' E 004°40'1918.2
2014-Nov-20 03:29N 53°05' E 004°25'1617.9
2014-Nov-20 02:33N 52°51' E 004°13'1717.2
2014-Nov-20 01:33N 52°37' E 003°55'3817.2
2014-Nov-19 23:22N 52°04' E 003°24'1417.0
2014-Nov-19 22:32N 51°51' E 003°18'1616.1
2014-Nov-19 21:31N 51°36' E 003°08'1111.7
2014-Nov-19 20:33N 51°24' E 003°05'6 5.3
2014-Nov-19 19:21N 51°21' E 003°13'0 0.0
2014-Nov-19 18:33N 51°21' E 003°13'0 0.0
2014-Nov-19 17:12N 51°21' E 003°13'0 0.0
2014-Nov-19 16:27N 51°21' E 003°13'0 0.0
2014-Nov-19 15:18N 51°21' E 003°13'0 0.0
2014-Nov-19 14:33N 51°21' E 003°13'0 0.0
2014-Nov-19 13:30N 51°21' E 003°13'0 0.0
2014-Nov-19 12:33N 51°21' E 003°13'10 9.4
2014-Nov-19 11:32N 51°26' E 003°00'1313.1
2014-Nov-19 10:31N 51°38' E 003°06'1212.1
2014-Nov-19 09:33N 51°49' E 003°14'11915.9
2014-Nov-19 02:06N 53°36' E 004°40'915.9
2014-Nov-19 01:33N 53°41' E 004°52'1616.5
2014-Nov-19 00:33N 53°51' E 005°14'1717.0
2014-Nov-18 23:33N 54°02' E 005°36'7216.2
2014-Nov-18 19:08N 55°09' E 006°18'20315.9
2014-Nov-18 06:25N 57°45' E 010°13'1518.0
2014-Nov-18 05:33N 57°50' E 010°40'1817.7
2014-Nov-18 04:33N 57°43' E 011°10'1716.6
2014-Nov-18 03:33N 57°36' E 011°38'9 8.9
2014-Nov-18 02:32N 57°41' E 011°52'0 0.0
2014-Nov-18 01:32N 57°41' E 011°52'0 0.0
2014-Nov-18 00:33N 57°41' E 011°52'0 0.0
2014-Nov-17 23:33N 57°41' E 011°52'0 0.0
2014-Nov-17 22:33N 57°41' E 011°52'0 0.0
2014-Nov-17 21:33N 57°41' E 011°52'0 0.0
2014-Nov-17 20:33N 57°41' E 011°52'0 0.0
2014-Nov-17 19:33N 57°41' E 011°52'0 0.0
2014-Nov-17 18:33N 57°41' E 011°52'0 0.0
2014-Nov-17 17:33N 57°41' E 011°52'6 6.3
2014-Nov-17 16:34N 57°38' E 011°42'9 9.0
2014-Nov-17 15:33N 57°37' E 011°25'1312.7
2014-Nov-17 14:32N 57°39' E 011°01'1313.8
2014-Nov-17 13:34N 57°48' E 010°43'  
Track history (hours):
 
Tides and Currents Weather Stations Pressure Air Temp Water Temp Dewpoint Dewpoint Depression Visibility Wind Speed Wind Dir Waves Ship Positions

Celandine

Last reported at 2014-Nov-27 13:24 UTC. Time now 2014-Nov-27 14:24 UTC.
Position N 51°21' E 003°13'.

Length 162 m; draft 6 m.

Type: Ship (hazmat cat A). MMSI: 205476000.

Date/timePositionNaut miles runAvg speedWind from/ knotsBaromVisibWave heightAir tempDewpointWater temp
2014-Nov-27 13:24N 51°21' E 003°13'0 0.0
2014-Nov-27 12:33N 51°21' E 003°13'0 0.4
2014-Nov-27 11:33N 51°21' E 003°13'1110.7
2014-Nov-27 10:33N 51°30' E 003°04'1615.9
2014-Nov-27 09:33N 51°46' E 003°07'1616.1
2014-Nov-27 08:33N 51°59' E 003°20'9014.9
2014-Nov-27 02:31N 53°19' E 004°29'2116.0
2014-Nov-27 01:12N 53°38' E 004°45'1016.1
2014-Nov-27 00:34N 53°44' E 004°58'1615.8
2014-Nov-26 23:33N 53°54' E 005°20'1515.3
2014-Nov-26 22:33N 54°03' E 005°41'7614.9
2014-Nov-26 17:29N 55°15' E 006°19'1515.5
2014-Nov-26 16:32N 55°29' E 006°29'14215.8
2014-Nov-26 07:33N 57°25' E 008°56'2016.6
2014-Nov-26 06:22N 57°34' E 009°29'1316.0
2014-Nov-26 05:33N 57°41' E 009°50'1615.7
2014-Nov-26 04:33N 57°46' E 010°18'1515.5
2014-Nov-26 03:33N 57°49' E 010°46'1616.1
2014-Nov-26 02:33N 57°42' E 011°13'1515.3
2014-Nov-26 01:33N 57°38' E 011°41'7 7.1
2014-Nov-26 00:32N 57°41' E 011°52'0 0.0
2014-Nov-25 23:32N 57°41' E 011°52'0 0.0
2014-Nov-25 22:29N 57°41' E 011°52'0 0.0
2014-Nov-25 21:32N 57°41' E 011°52'0 0.0
2014-Nov-25 20:32N 57°41' E 011°52'0 0.0
2014-Nov-25 19:32N 57°41' E 011°52'0 0.0
2014-Nov-25 18:32N 57°41' E 011°52'0 0.0
2014-Nov-25 17:32N 57°41' E 011°52'0 0.0
2014-Nov-25 16:32N 57°41' E 011°52'0 0.0
2014-Nov-25 15:32N 57°41' E 011°52'0 0.0
2014-Nov-25 14:32N 57°41' E 011°52'0 0.0
2014-Nov-25 13:32N 57°41' E 011°52'0 0.0
2014-Nov-25 12:32N 57°41' E 011°52'0 0.0
2014-Nov-25 11:32N 57°41' E 011°52'0 0.0
2014-Nov-25 10:32N 57°41' E 011°52'0 0.0
2014-Nov-25 09:32N 57°41' E 011°52'0 0.0
2014-Nov-25 08:32N 57°41' E 011°52'0 0.0
2014-Nov-25 07:32N 57°41' E 011°52'0 0.0
2014-Nov-25 06:32N 57°41' E 011°52'0 0.0
2014-Nov-25 05:32N 57°41' E 011°52'0 0.0
2014-Nov-25 04:32N 57°41' E 011°52'0 0.0
2014-Nov-25 03:32N 57°41' E 011°52'0 0.0
2014-Nov-25 02:29N 57°41' E 011°52'0 0.0
2014-Nov-25 01:32N 57°41' E 011°52'0 0.0
2014-Nov-25 00:32N 57°41' E 011°52'0 0.0
2014-Nov-24 23:32N 57°41' E 011°52'0 0.3
2014-Nov-24 22:34N 57°41' E 011°52'1111.4
2014-Nov-24 21:33N 57°37' E 011°32'1010.0
2014-Nov-24 20:33N 57°37' E 011°14'13 9.4
2014-Nov-24 19:13N 57°43' E 010°53'6 9.3
2014-Nov-24 18:33N 57°48' E 010°46'8 6.7
2014-Nov-24 17:21N 57°49' E 010°30'6 7.7
2014-Nov-24 16:33N 57°46' E 010°20'17115.0
2014-Nov-24 05:08N 55°43' E 006°43'1515.8
2014-Nov-24 04:11N 55°30' E 006°31'1416.0
2014-Nov-24 03:17N 55°17' E 006°22'1215.3
2014-Nov-24 02:29N 55°05' E 006°16'5315.9
2014-Nov-23 23:08N 54°15' E 005°46'915.2
2014-Nov-23 22:32N 54°06' E 005°43'1616.2
2014-Nov-23 21:33N 53°54' E 005°24'1716.6
2014-Nov-23 20:33N 53°43' E 005°04'1616.3
2014-Nov-23 19:33N 53°30' E 004°46'1716.8
2014-Nov-23 18:33N 53°15' E 004°34'2017.2
2014-Nov-23 17:25N 52°58' E 004°19'1817.5
2014-Nov-23 16:22N 52°42' E 004°03'4218.1
2014-Nov-23 14:03N 52°07' E 003°26'918.5
2014-Nov-23 13:33N 51°58' E 003°24'1817.7
2014-Nov-23 12:33N 51°43' E 003°09'1716.6
2014-Nov-23 11:33N 51°27' E 002°60'1110.6
2014-Nov-23 10:33N 51°21' E 003°13'0 0.0
2014-Nov-23 09:33N 51°21' E 003°13'0 0.0
2014-Nov-23 08:33N 51°21' E 003°13'0 0.0
2014-Nov-23 07:33N 51°21' E 003°13'0 0.0
2014-Nov-23 06:33N 51°21' E 003°13'0 0.0
2014-Nov-23 05:33N 51°21' E 003°13'0 0.0
2014-Nov-23 04:33N 51°21' E 003°13'0 0.0
2014-Nov-23 03:33N 51°21' E 003°13'0 0.0
2014-Nov-23 02:33N 51°21' E 003°13'2 1.9
2014-Nov-23 01:33N 51°22' E 003°11'10 9.3
2014-Nov-23 00:31N 51°31' E 003°06'1515.4
2014-Nov-22 23:33N 51°46' E 003°11'1716.2
2014-Nov-22 22:29N 52°02' E 003°21'3717.3
2014-Nov-22 20:21N 52°34' E 003°50'3616.4
2014-Nov-22 18:08N 53°07' E 004°17'3914.8
2014-Nov-22 15:32N 53°40' E 004°49'1616.4
2014-Nov-22 14:32N 53°50' E 005°11'1717.0
2014-Nov-22 13:33N 54°00' E 005°34'1615.7
2014-Nov-22 12:33N 54°14' E 005°46'6015.0
2014-Nov-22 08:33N 55°11' E 006°19'20115.2
2014-Nov-21 19:20N 57°45' E 010°14'1316.9
2014-Nov-21 18:33N 57°50' E 010°38'1616.5
2014-Nov-21 17:33N 57°44' E 011°06'1616.2
2014-Nov-21 16:33N 57°37' E 011°33'1110.9
2014-Nov-21 15:31N 57°41' E 011°52'0 0.0
2014-Nov-21 14:31N 57°41' E 011°52'0 0.0
2014-Nov-21 13:31N 57°41' E 011°52'0 0.0
2014-Nov-21 12:31N 57°41' E 011°52'0 0.0
2014-Nov-21 11:31N 57°41' E 011°52'0 0.0
2014-Nov-21 10:31N 57°41' E 011°52'0 0.0
2014-Nov-21 09:31N 57°41' E 011°52'0 0.0
2014-Nov-21 08:31N 57°41' E 011°52'0 0.0
2014-Nov-21 07:31N 57°41' E 011°52'0 0.1
2014-Nov-21 06:34N 57°41' E 011°52'1010.2
2014-Nov-21 05:34N 57°37' E 011°35'1313.3
2014-Nov-21 04:33N 57°37' E 011°10'1312.7
2014-Nov-21 03:33N 57°44' E 010°51'18213.8
2014-Nov-20 14:20N 55°43' E 006°43'1516.0
2014-Nov-20 13:23N 55°29' E 006°30'1416.6
2014-Nov-20 12:32N 55°16' E 006°23'6815.9
2014-Nov-20 08:15N 54°11' E 005°45'1116.1
2014-Nov-20 07:33N 54°01' E 005°37'1717.1
2014-Nov-20 06:33N 53°50' E 005°15'1717.4
2014-Nov-20 05:33N 53°38' E 004°53'1717.3
2014-Nov-20 04:32N 53°22' E 004°40'1918.2
2014-Nov-20 03:29N 53°05' E 004°25'1617.9
2014-Nov-20 02:33N 52°51' E 004°13'1717.2
2014-Nov-20 01:33N 52°37' E 003°55'3817.2
2014-Nov-19 23:22N 52°04' E 003°24'1417.0
2014-Nov-19 22:32N 51°51' E 003°18'1616.1
2014-Nov-19 21:31N 51°36' E 003°08'1111.7
2014-Nov-19 20:33N 51°24' E 003°05'6 5.3
2014-Nov-19 19:21N 51°21' E 003°13'0 0.0
2014-Nov-19 18:33N 51°21' E 003°13'0 0.0
2014-Nov-19 17:12N 51°21' E 003°13'0 0.0
2014-Nov-19 16:27N 51°21' E 003°13'0 0.0
2014-Nov-19 15:18N 51°21' E 003°13'0 0.0
2014-Nov-19 14:33N 51°21' E 003°13'0 0.0
2014-Nov-19 13:30N 51°21' E 003°13'0 0.0
2014-Nov-19 12:33N 51°21' E 003°13'10 9.4
2014-Nov-19 11:32N 51°26' E 003°00'1313.1
2014-Nov-19 10:31N 51°38' E 003°06'1212.1
2014-Nov-19 09:33N 51°49' E 003°14'11915.9
2014-Nov-19 02:06N 53°36' E 004°40'915.9
2014-Nov-19 01:33N 53°41' E 004°52'1616.5
2014-Nov-19 00:33N 53°51' E 005°14'1717.0
2014-Nov-18 23:33N 54°02' E 005°36'7216.2
2014-Nov-18 19:08N 55°09' E 006°18'20315.9
2014-Nov-18 06:25N 57°45' E 010°13'1518.0
2014-Nov-18 05:33N 57°50' E 010°40'1817.7
2014-Nov-18 04:33N 57°43' E 011°10'1716.6
2014-Nov-18 03:33N 57°36' E 011°38'9 8.9
2014-Nov-18 02:32N 57°41' E 011°52'0 0.0
2014-Nov-18 01:32N 57°41' E 011°52'0 0.0
2014-Nov-18 00:33N 57°41' E 011°52'0 0.0
2014-Nov-17 23:33N 57°41' E 011°52'0 0.0
2014-Nov-17 22:33N 57°41' E 011°52'0 0.0
2014-Nov-17 21:33N 57°41' E 011°52'0 0.0
2014-Nov-17 20:33N 57°41' E 011°52'0 0.0
2014-Nov-17 19:33N 57°41' E 011°52'0 0.0
2014-Nov-17 18:33N 57°41' E 011°52'0 0.0
2014-Nov-17 17:33N 57°41' E 011°52'6 6.3
2014-Nov-17 16:34N 57°38' E 011°42'9 9.0
2014-Nov-17 15:33N 57°37' E 011°25'1312.7
2014-Nov-17 14:32N 57°39' E 011°01'1313.8
2014-Nov-17 13:34N 57°48' E 010°43'  

Dump ship's entire track history